createdAt,value
2023-04-17T00:00:51.635Z,35.15
2023-04-17T00:03:18.890Z,34.92
2023-04-17T00:05:46.371Z,35.60
2023-04-17T00:08:13.554Z,34.95
2023-04-17T00:10:41.301Z,36.40
2023-04-17T00:13:08.479Z,33.10
2023-04-17T00:15:35.742Z,29.65
2023-04-17T00:18:02.976Z,33.10
2023-04-17T00:20:30.158Z,34.90
2023-04-17T00:22:57.360Z,32.95
2023-04-17T00:25:24.739Z,33.40
2023-04-17T00:27:51.953Z,33.05
2023-04-17T00:30:19.375Z,31.02
2023-04-17T00:32:46.597Z,34.13
2023-04-17T00:35:14.203Z,33.50
2023-04-17T00:37:41.458Z,34.13
2023-04-17T00:40:09.831Z,31.58
2023-04-17T00:42:37.007Z,28.92
2023-04-17T00:45:05.600Z,33.13
2023-04-17T00:47:33.393Z,31.20
2023-04-17T00:50:00.786Z,33.47
2023-04-17T00:52:30.026Z,34.75
2023-04-17T00:55:00.194Z,35.20
2023-04-17T00:57:27.791Z,31.90
2023-04-17T00:59:58.312Z,32.55
2023-04-17T01:02:26.892Z,36.63
2023-04-17T01:04:54.767Z,33.90
2023-04-17T01:07:22.598Z,36.38
2023-04-17T01:09:49.795Z,33.40
2023-04-17T01:12:24.509Z,29.95
2023-04-17T01:14:56.735Z,33.38
2023-04-17T01:17:27.984Z,40.50
2023-04-17T01:19:56.708Z,42.75
2023-04-17T01:22:24.729Z,34.60
2023-04-17T01:24:56.456Z,41.42
2023-04-17T01:27:26.307Z,42.67
2023-04-17T01:29:53.622Z,39.17
2023-04-17T01:32:20.904Z,40.10
2023-04-17T01:34:48.205Z,44.65
2023-04-17T01:37:15.426Z,45.55
2023-04-17T01:39:42.618Z,39.28
2023-04-17T01:42:09.935Z,45.45
2023-04-17T01:44:37.642Z,43.35
2023-04-17T01:47:05.032Z,40.22
2023-04-17T01:49:32.616Z,37.42
2023-04-17T01:52:00.276Z,38.38
2023-04-17T01:54:27.612Z,47.33
2023-04-17T01:56:54.894Z,37.72
2023-04-17T01:59:22.194Z,37.10
2023-04-17T02:01:53.794Z,37.90
2023-04-17T02:04:21.265Z,36.70
2023-04-17T02:06:48.637Z,40.97
2023-04-17T02:09:17.353Z,35.30
2023-04-17T02:11:44.591Z,40.85
2023-04-17T02:14:11.957Z,38.17
2023-04-17T02:16:40.065Z,42.63
2023-04-17T02:19:07.478Z,38.40
2023-04-17T02:21:34.708Z,44.17
2023-04-17T02:24:05.752Z,40.60
2023-04-17T02:26:33.057Z,41.17
2023-04-17T02:29:00.744Z,35.58
2023-04-17T02:31:28.072Z,36.53
2023-04-17T02:33:55.517Z,40.47
2023-04-17T02:36:22.724Z,40.42
2023-04-17T02:38:50.118Z,41.20
2023-04-17T02:41:17.340Z,46.08
2023-04-17T02:43:48.389Z,44.03
2023-04-17T02:46:17.526Z,45.47
2023-04-17T02:48:44.788Z,49.15
2023-04-17T02:51:12.062Z,49.60
2023-04-17T02:53:39.359Z,43.05
2023-04-17T02:56:06.845Z,48.92
2023-04-17T02:58:35.219Z,51.10
2023-04-17T03:01:04.165Z,53.83
2023-04-17T03:03:35.815Z,50.17
2023-04-17T03:06:06.960Z,51.70
2023-04-17T03:08:35.811Z,50.30
2023-04-17T03:11:03.735Z,59.72
2023-04-17T03:13:31.500Z,58.28
2023-04-17T03:15:59.268Z,58.08
2023-04-17T03:18:27.102Z,59.85
2023-04-17T03:20:54.438Z,57.40
2023-04-17T03:23:21.684Z,55.95
2023-04-17T03:25:50.602Z,59.78
2023-04-17T03:28:18.604Z,58.03
2023-04-17T03:30:45.930Z,62.00
2023-04-17T03:33:13.132Z,61.92
2023-04-17T03:35:41.012Z,56.95
2023-04-17T03:38:10.035Z,65.65
2023-04-17T03:40:37.614Z,60.13
2023-04-17T03:43:05.010Z,54.90
2023-04-17T03:45:33.063Z,65.10
2023-04-17T03:48:01.460Z,62.78
2023-04-17T03:50:29.195Z,62.22
2023-04-17T03:52:57.684Z,69.53
2023-04-17T03:55:28.036Z,69.60
2023-04-17T03:57:55.820Z,73.25
2023-04-17T04:00:24.854Z,74.53
2023-04-17T04:02:57.377Z,87.05
2023-04-17T04:05:33.163Z,78.10
2023-04-17T04:08:00.796Z,89.72
2023-04-17T04:10:46.208Z,91.70
2023-04-17T04:13:18.905Z,85.80
2023-04-17T04:15:52.187Z,85.93
2023-04-17T04:18:21.684Z,80.40
2023-04-17T04:20:49.102Z,81.40
2023-04-17T04:23:25.147Z,74.15
2023-04-17T04:25:56.922Z,82.53
2023-04-17T04:28:48.642Z,77.50
2023-04-17T04:31:21.624Z,72.80
2023-04-17T04:33:55.202Z,73.82
2023-04-17T04:36:23.973Z,72.82
2023-04-17T04:39:02.116Z,75.38
2023-04-17T04:41:34.644Z,71.20
2023-04-17T04:44:05.108Z,66.82
2023-04-17T04:46:34.662Z,65.70
2023-04-17T04:49:02.767Z,65.57
2023-04-17T04:51:31.968Z,63.03
2023-04-17T04:53:59.465Z,60.90
2023-04-17T04:56:27.286Z,65.15
2023-04-17T04:58:56.292Z,63.72
2023-04-17T05:01:24.292Z,60.08
2023-04-17T05:03:51.836Z,63.45
2023-04-17T05:06:23.627Z,67.13
2023-04-17T05:08:57.013Z,67.25
2023-04-17T05:11:26.160Z,75.25
2023-04-17T05:13:53.522Z,69.65
2023-04-17T05:16:28.372Z,69.32
2023-04-17T05:18:56.349Z,65.50
2023-04-17T05:21:42.981Z,64.53
2023-04-17T05:24:10.436Z,69.82
2023-04-17T05:26:37.657Z,68.85
2023-04-17T05:29:05.896Z,67.78
2023-04-17T05:31:34.346Z,66.63
2023-04-17T05:34:06.289Z,64.15
2023-04-17T05:36:34.085Z,63.67
2023-04-17T05:39:04.036Z,64.13
2023-04-17T05:41:31.508Z,57.15
2023-04-17T05:43:58.840Z,62.28
2023-04-17T05:46:26.097Z,67.07
2023-04-17T05:48:53.356Z,63.65
2023-04-17T05:51:21.663Z,62.92
2023-04-17T05:53:49.246Z,60.83
2023-04-17T05:56:16.548Z,60.25
2023-04-17T05:58:44.056Z,64.95
2023-04-17T06:01:13.039Z,59.00
2023-04-17T06:03:40.833Z,62.25
2023-04-17T06:06:16.578Z,63.92
2023-04-17T06:08:44.093Z,56.92
2023-04-17T06:11:11.484Z,60.28
2023-04-17T06:13:39.019Z,61.20
2023-04-17T06:16:06.696Z,65.35
2023-04-17T06:18:34.257Z,63.55
2023-04-17T06:21:01.944Z,60.33
2023-04-17T06:23:29.205Z,62.47
2023-04-17T06:25:56.817Z,60.88
2023-04-17T06:28:24.149Z,60.03
2023-04-17T06:30:54.099Z,57.22
2023-04-17T06:33:22.385Z,61.47
2023-04-17T06:35:50.605Z,59.10
2023-04-17T06:38:31.109Z,56.15
2023-04-17T06:40:58.366Z,58.90
2023-04-17T06:43:25.641Z,55.15
2023-04-17T06:45:53.895Z,53.25
2023-04-17T06:48:21.160Z,53.70
2023-04-17T06:50:49.651Z,55.45
2023-04-17T06:53:16.962Z,58.17
2023-04-17T06:55:45.239Z,61.42
2023-04-17T06:58:12.929Z,59.42
2023-04-17T07:00:40.115Z,54.63
2023-04-17T07:03:08.043Z,56.03
2023-04-17T07:05:35.403Z,56.28
2023-04-17T07:08:02.686Z,55.88
2023-04-17T07:10:29.985Z,52.50
2023-04-17T07:12:57.327Z,54.15
2023-04-17T07:15:24.776Z,55.72
2023-04-17T07:17:52.096Z,60.85
2023-04-17T07:20:19.279Z,55.08
2023-04-17T07:22:46.791Z,58.42
2023-04-17T07:25:14.055Z,52.90
2023-04-17T07:27:41.442Z,50.58
2023-04-17T07:30:09.889Z,46.40
2023-04-17T07:32:37.254Z,52.20
2023-04-17T07:35:05.134Z,50.80
2023-04-17T07:37:33.921Z,58.92
2023-04-17T07:40:01.267Z,58.55
2023-04-17T07:42:29.346Z,54.85
2023-04-17T07:44:57.568Z,59.80
2023-04-17T07:47:24.882Z,51.88
2023-04-17T07:49:52.209Z,56.35
2023-04-17T07:52:19.487Z,53.15
2023-04-17T07:54:46.740Z,52.13
2023-04-17T07:57:15.616Z,46.67
2023-04-17T07:59:43.077Z,46.75
2023-04-17T08:02:10.716Z,54.65
2023-04-17T08:04:40.372Z,56.00
2023-04-17T08:07:10.739Z,52.33
2023-04-17T08:09:38.574Z,51.97
2023-04-17T08:12:06.780Z,53.95
2023-04-17T08:14:34.248Z,51.25
2023-04-17T08:17:02.610Z,49.05
2023-04-17T08:19:30.149Z,52.60
2023-04-17T08:22:06.229Z,56.38
2023-04-17T08:24:33.702Z,56.85
2023-04-17T08:27:01.670Z,54.17
2023-04-17T08:29:28.899Z,50.60
2023-04-17T08:32:12.687Z,52.70
2023-04-17T08:34:41.843Z,56.05
2023-04-17T08:37:09.133Z,53.33
2023-04-17T08:39:36.514Z,48.15
2023-04-17T08:42:13.375Z,52.63
2023-04-17T08:44:45.079Z,48.67
2023-04-17T08:47:13.722Z,56.45
2023-04-17T08:49:43.768Z,51.42
2023-04-17T08:52:11.675Z,51.60
2023-04-17T08:54:39.656Z,49.42
2023-04-17T08:57:07.184Z,48.50
2023-04-17T08:59:34.716Z,51.45
2023-04-17T09:02:07.900Z,58.22
2023-04-17T09:04:45.813Z,57.72
2023-04-17T09:07:15.535Z,49.83
2023-04-17T09:09:49.799Z,48.97
2023-04-17T09:12:18.938Z,54.83
2023-04-17T09:14:46.432Z,56.08
2023-04-17T09:17:19.390Z,47.45
2023-04-17T09:20:09.851Z,50.45
2023-04-17T09:22:40.425Z,44.45
2023-04-17T09:25:18.911Z,46.80
2023-04-17T09:27:46.481Z,50.67
2023-04-17T09:30:14.530Z,43.45
2023-04-17T09:32:42.037Z,40.60
2023-04-17T09:35:09.578Z,47.20
2023-04-17T09:37:59.472Z,48.08
2023-04-17T09:40:36.089Z,45.95
2023-04-17T09:43:10.017Z,47.53
2023-04-17T09:45:42.068Z,41.42
2023-04-17T09:48:14.205Z,46.20
2023-04-17T09:50:41.678Z,44.65
2023-04-17T09:53:09.449Z,44.63
2023-04-17T09:55:38.890Z,38.92
2023-04-17T09:58:08.009Z,42.92
2023-04-17T10:00:37.874Z,41.63
2023-04-17T10:03:07.206Z,34.88
2023-04-17T10:05:35.923Z,29.83
2023-04-17T10:08:04.315Z,33.70
2023-04-17T10:10:34.147Z,31.08
2023-04-17T10:13:05.381Z,32.80
2023-04-17T10:15:34.239Z,32.25
2023-04-17T10:18:24.535Z,36.00
2023-04-17T10:20:54.303Z,34.22
2023-04-17T10:23:34.741Z,31.08
2023-04-17T10:26:26.210Z,33.58
2023-04-17T10:28:56.023Z,39.83
2023-04-17T10:31:43.519Z,32.88
2023-04-17T10:34:42.465Z,38.10
2023-04-17T10:37:15.633Z,32.60
2023-04-17T10:40:02.334Z,36.58
2023-04-17T10:42:30.723Z,40.55
2023-04-17T10:45:01.860Z,36.38
2023-04-17T10:47:34.418Z,36.35
2023-04-17T10:50:04.543Z,41.58
2023-04-17T10:52:35.088Z,41.33
2023-04-17T10:58:05.075Z,36.80
2023-04-17T11:00:51.425Z,38.38
2023-04-17T11:03:22.461Z,40.78
2023-04-17T11:05:49.802Z,43.25
2023-04-17T11:08:17.165Z,37.97
2023-04-17T11:10:44.685Z,48.13
2023-04-17T11:13:12.124Z,47.20
2023-04-17T11:15:39.535Z,49.90
2023-04-17T11:18:07.353Z,52.83
2023-04-17T11:20:40.317Z,47.53
2023-04-17T11:23:08.826Z,43.75
2023-04-17T11:25:37.302Z,44.33
2023-04-17T11:28:07.045Z,43.92
2023-04-17T11:30:38.297Z,45.20
2023-04-17T11:33:08.021Z,51.95
2023-04-17T11:35:41.579Z,51.92
2023-04-17T11:38:17.817Z,47.63
2023-04-17T11:40:59.150Z,52.15
2023-04-17T11:43:28.508Z,61.15
2023-04-17T11:46:03.612Z,68.07
2023-04-17T11:48:32.555Z,64.55
2023-04-17T11:51:04.727Z,71.50
2023-04-17T11:53:34.638Z,79.57
2023-04-17T11:56:19.069Z,72.93
2023-04-17T11:58:55.775Z,80.57
2023-04-17T12:01:28.611Z,72.55
2023-04-17T12:04:00.477Z,71.28
2023-04-17T12:06:38.739Z,74.53
2023-04-17T12:09:07.242Z,70.47
2023-04-17T12:11:35.922Z,77.07
2023-04-17T12:14:11.677Z,76.03
2023-04-17T12:16:39.155Z,80.40
2023-04-17T12:19:07.931Z,76.72
2023-04-17T12:21:35.393Z,70.13
2023-04-17T12:24:02.848Z,80.43
2023-04-17T12:26:30.500Z,76.03
2023-04-17T12:28:58.070Z,79.70
2023-04-17T12:31:25.438Z,69.03
2023-04-17T12:33:52.701Z,69.38
2023-04-17T12:36:20.183Z,71.35
2023-04-17T12:38:47.514Z,79.28
2023-04-17T12:41:14.869Z,71.72
2023-04-17T12:43:42.509Z,82.63
2023-04-17T12:46:09.918Z,72.75
2023-04-17T12:48:37.213Z,76.40
2023-04-17T12:51:04.765Z,62.40
2023-04-17T12:53:32.229Z,61.47
2023-04-17T12:55:59.887Z,66.57
2023-04-17T12:58:27.298Z,59.22
2023-04-17T13:00:54.606Z,49.88
2023-04-17T13:03:22.037Z,53.40
2023-04-17T13:05:53.437Z,56.65
2023-04-17T13:08:21.044Z,54.53
2023-04-17T13:10:48.329Z,57.30
2023-04-17T13:13:15.615Z,59.90
2023-04-17T13:15:45.941Z,54.53
2023-04-17T13:18:13.437Z,56.22
2023-04-17T13:20:40.790Z,62.08
2023-04-17T13:23:08.110Z,55.30
2023-04-17T13:25:35.653Z,61.00
2023-04-17T13:28:03.697Z,61.63
2023-04-17T13:30:32.374Z,58.22
2023-04-17T13:32:59.675Z,57.85
2023-04-17T13:35:27.074Z,60.55
2023-04-17T13:37:55.052Z,67.72
2023-04-17T13:40:22.177Z,64.45
2023-04-17T13:42:49.483Z,61.58
2023-04-17T13:45:16.832Z,56.90
2023-04-17T13:47:44.794Z,60.72
2023-04-17T13:50:12.381Z,47.53
2023-04-17T13:52:39.706Z,41.75
2023-04-17T13:55:11.885Z,48.33
2023-04-17T13:57:39.410Z,42.10
2023-04-17T14:00:07.800Z,43.70
2023-04-17T14:02:35.222Z,43.35
2023-04-17T14:05:02.719Z,45.10
2023-04-17T14:07:30.355Z,44.58
2023-04-17T14:09:57.627Z,37.85
2023-04-17T14:12:24.856Z,36.17
2023-04-17T14:14:52.100Z,33.25
2023-04-17T14:17:19.441Z,35.63
2023-04-17T14:19:46.763Z,35.60
2023-04-17T14:22:14.047Z,38.17
2023-04-17T14:24:41.321Z,39.05
2023-04-17T14:27:09.105Z,33.22
2023-04-17T14:29:36.519Z,36.35
2023-04-17T14:32:03.853Z,38.50
2023-04-17T14:34:31.121Z,36.13
2023-04-17T14:36:58.716Z,33.88
2023-04-17T14:39:25.996Z,34.88
2023-04-17T14:41:53.352Z,29.30
2023-04-17T14:44:21.128Z,27.95
2023-04-17T14:46:48.950Z,24.92
2023-04-17T14:49:16.784Z,24.33
2023-04-17T14:51:44.033Z,24.00
2023-04-17T14:54:11.446Z,24.30
2023-04-17T14:56:39.293Z,26.15
2023-04-17T14:59:06.638Z,22.20
2023-04-17T15:01:34.240Z,24.83
2023-04-17T15:04:02.231Z,19.27
2023-04-17T15:06:29.910Z,22.15
2023-04-17T15:08:57.349Z,24.02
2023-04-17T15:11:24.766Z,22.13
2023-04-17T15:13:52.110Z,23.75
2023-04-17T15:16:19.594Z,26.65
2023-04-17T15:18:46.869Z,23.25
2023-04-17T15:21:16.880Z,20.60
2023-04-17T15:23:44.197Z,22.45
2023-04-17T15:26:12.521Z,17.13
2023-04-17T15:28:40.451Z,16.17
2023-04-17T15:31:08.109Z,18.15
2023-04-17T15:33:36.116Z,16.75
2023-04-17T15:36:03.852Z,12.10
2023-04-17T15:38:31.196Z,15.48
2023-04-17T15:40:58.994Z,14.90
2023-04-17T15:43:26.957Z,14.70
2023-04-17T15:45:55.474Z,14.57
2023-04-17T15:48:22.732Z,17.83
2023-04-17T15:50:49.945Z,14.98
2023-04-17T15:53:17.209Z,16.52
2023-04-17T15:55:44.443Z,16.30
2023-04-17T15:58:11.723Z,17.48
2023-04-17T16:00:39.387Z,19.63
2023-04-17T16:03:07.999Z,25.15
2023-04-17T16:05:35.404Z,17.17
2023-04-17T16:08:02.745Z,19.13
2023-04-17T16:10:30.294Z,17.65
2023-04-17T16:12:58.035Z,16.38
2023-04-17T16:15:25.602Z,17.40
2023-04-17T16:17:53.013Z,15.77
2023-04-17T16:20:20.315Z,19.73
2023-04-17T16:22:47.688Z,14.38
2023-04-17T16:25:15.073Z,16.90
2023-04-17T16:27:42.462Z,19.00
2023-04-17T16:30:10.951Z,18.45
2023-04-17T16:32:38.334Z,18.02
2023-04-17T16:35:06.356Z,18.33
2023-04-17T16:37:33.606Z,19.95
2023-04-17T16:40:05.268Z,24.13
2023-04-17T16:42:33.218Z,20.00
2023-04-17T16:45:00.965Z,25.27
2023-04-17T16:47:31.634Z,26.02
2023-04-17T16:52:26.194Z,23.70
2023-04-17T16:54:53.444Z,29.55
2023-04-17T16:57:21.071Z,23.75
2023-04-17T16:59:48.353Z,25.77
2023-04-17T17:02:15.760Z,22.52
2023-04-17T17:04:45.094Z,21.20
2023-04-17T17:07:12.641Z,19.80
2023-04-17T17:09:39.824Z,17.48
2023-04-17T17:12:07.369Z,18.13
2023-04-17T17:14:34.679Z,19.98
2023-04-17T17:17:02.195Z,18.83
2023-04-17T17:19:29.441Z,16.98
2023-04-17T17:21:56.658Z,18.63
2023-04-17T17:24:24.240Z,24.70
2023-04-17T17:26:51.740Z,18.15
2023-04-17T17:29:19.175Z,22.02
2023-04-17T17:31:46.725Z,21.15
2023-04-17T17:36:44.264Z,23.20
2023-04-17T17:39:11.817Z,23.17
2023-04-17T17:41:39.324Z,29.33
2023-04-17T17:44:06.629Z,25.88
2023-04-17T17:46:35.854Z,29.85
2023-04-17T17:49:03.270Z,39.25
2023-04-17T17:51:31.335Z,40.80
2023-04-17T17:53:58.651Z,39.08
2023-04-17T17:56:26.084Z,36.75
2023-04-17T17:58:53.555Z,35.25
2023-04-17T18:01:23.612Z,37.65
2023-04-17T18:03:51.704Z,35.67
2023-04-17T18:06:19.181Z,33.90
2023-04-17T18:08:46.509Z,38.28
2023-04-17T18:11:14.237Z,39.28
2023-04-17T18:13:41.711Z,34.00
2023-04-17T18:16:09.241Z,35.80
2023-04-17T18:18:36.873Z,32.42
2023-04-17T18:21:08.319Z,34.10
2023-04-17T18:23:35.931Z,32.75
2023-04-17T18:26:04.339Z,32.22
2023-04-17T18:28:32.597Z,29.08
2023-04-17T18:30:59.922Z,29.55
2023-04-17T18:33:28.880Z,33.58
2023-04-17T18:35:56.224Z,33.05
2023-04-17T18:38:23.651Z,30.55
2023-04-17T18:40:57.094Z,33.38
2023-04-17T18:43:24.576Z,27.20
2023-04-17T18:45:52.191Z,30.58
2023-04-17T18:48:19.774Z,27.35
2023-04-17T18:50:47.272Z,29.10
2023-04-17T18:53:14.841Z,28.52
2023-04-17T18:55:42.081Z,23.95
2023-04-17T18:58:09.524Z,25.10
2023-04-17T19:00:37.704Z,29.45
2023-04-17T19:03:06.602Z,29.33
2023-04-17T19:05:34.159Z,23.60
2023-04-17T19:08:01.581Z,27.33
2023-04-17T19:10:30.084Z,23.60
2023-04-17T19:12:57.318Z,26.05
2023-04-17T19:15:25.129Z,23.40
2023-04-17T19:17:52.948Z,24.02
2023-04-17T19:20:20.326Z,24.00
2023-04-17T19:22:47.692Z,24.20
2023-04-17T19:25:15.107Z,22.42
2023-04-17T19:27:42.679Z,25.80
2023-04-17T19:30:11.778Z,24.08
2023-04-17T19:32:39.080Z,21.77
2023-04-17T19:35:07.764Z,18.92
2023-04-17T19:37:35.362Z,20.23
2023-04-17T19:40:08.581Z,21.48
2023-04-17T19:42:41.918Z,21.67
2023-04-17T19:45:10.875Z,19.45
2023-04-17T19:47:40.337Z,19.13
2023-04-17T19:50:10.119Z,18.10
2023-04-17T19:52:40.771Z,17.93
2023-04-17T19:57:36.696Z,21.10
2023-04-17T20:00:04.468Z,20.52
2023-04-17T20:02:39.965Z,21.60
2023-04-17T20:05:09.120Z,24.35
2023-04-17T20:07:36.696Z,20.75
2023-04-17T20:10:04.907Z,19.35
2023-04-17T20:12:32.376Z,21.20
2023-04-17T20:14:59.642Z,24.65
2023-04-17T20:17:27.008Z,22.75
2023-04-17T20:19:54.354Z,19.05
2023-04-17T20:22:21.587Z,18.38
2023-04-17T20:24:50.886Z,18.23
2023-04-17T20:27:18.748Z,16.48
2023-04-17T20:29:46.194Z,17.58
2023-04-17T20:32:13.754Z,15.80
2023-04-17T20:34:41.023Z,16.60
2023-04-17T20:37:08.339Z,17.33
2023-04-17T20:39:35.681Z,11.60
2023-04-17T20:42:03.173Z,15.35
2023-04-17T20:44:32.486Z,19.73
2023-04-17T20:46:59.764Z,15.52
2023-04-17T20:49:27.040Z,14.77
2023-04-17T20:51:54.330Z,14.70
2023-04-17T20:54:23.256Z,17.40
2023-04-17T20:56:50.962Z,16.08
2023-04-17T20:59:18.400Z,15.52
2023-04-17T21:01:45.660Z,17.52
2023-04-17T21:04:13.174Z,13.68
2023-04-17T21:06:40.841Z,12.80
2023-04-17T21:09:08.936Z,14.52
2023-04-17T21:11:36.120Z,13.15
2023-04-17T21:14:03.900Z,15.43
2023-04-17T21:16:31.377Z,14.82
2023-04-17T21:18:58.840Z,15.40
2023-04-17T21:21:26.949Z,17.30
2023-04-17T21:23:54.246Z,17.15
2023-04-17T21:26:21.917Z,18.98
2023-04-17T21:28:49.223Z,16.10
2023-04-17T21:31:16.754Z,17.95
2023-04-17T21:33:44.188Z,15.20
2023-04-17T21:36:11.479Z,18.75
2023-04-17T21:38:39.046Z,25.05
2023-04-17T21:41:06.277Z,23.10
2023-04-17T21:43:33.515Z,17.85
2023-04-17T21:46:01.011Z,22.17
2023-04-17T21:48:28.500Z,20.23
2023-04-17T21:51:05.334Z,20.50
2023-04-17T21:53:35.665Z,20.33
2023-04-17T21:56:05.039Z,19.63
2023-04-17T21:58:34.085Z,18.88
2023-04-17T22:01:01.539Z,22.25
2023-04-17T22:03:28.943Z,21.48
2023-04-17T22:05:57.526Z,19.98
2023-04-17T22:08:25.080Z,20.23
2023-04-17T22:10:52.607Z,17.48
2023-04-17T22:13:19.858Z,15.88
2023-04-17T22:15:49.336Z,16.92
2023-04-17T22:18:16.603Z,15.90
2023-04-17T22:20:43.971Z,15.10
2023-04-17T22:23:11.156Z,21.85
2023-04-17T22:25:38.431Z,17.85
2023-04-17T22:28:05.689Z,13.00
2023-04-17T22:30:32.995Z,14.45
2023-04-17T22:33:00.598Z,16.27
2023-04-17T22:35:28.119Z,16.73
2023-04-17T22:37:55.363Z,17.80
2023-04-17T22:40:22.569Z,16.70
2023-04-17T22:42:51.087Z,14.73
2023-04-17T22:45:18.338Z,14.55
2023-04-17T22:47:45.576Z,15.30
2023-04-17T22:50:14.282Z,15.20
2023-04-17T22:52:41.620Z,14.05
2023-04-17T22:55:09.801Z,14.02
2023-04-17T22:57:37.238Z,15.38
2023-04-17T23:00:08.901Z,16.83
2023-04-17T23:02:36.852Z,15.88
2023-04-17T23:05:06.828Z,13.15
2023-04-17T23:07:34.160Z,14.10
2023-04-17T23:10:01.494Z,12.63
2023-04-17T23:12:28.680Z,12.77
2023-04-17T23:14:57.622Z,12.68
2023-04-17T23:17:24.924Z,10.80
2023-04-17T23:19:53.201Z,12.40
2023-04-17T23:22:20.509Z,10.15
2023-04-17T23:24:47.752Z,10.25
2023-04-17T23:27:15.055Z,10.27
2023-04-17T23:29:42.239Z,11.98
2023-04-17T23:32:09.640Z,16.20
2023-04-17T23:34:37.652Z,18.48
2023-04-17T23:37:05.447Z,16.55
2023-04-17T23:39:32.758Z,17.83
2023-04-17T23:42:05.692Z,21.27
2023-04-17T23:44:34.672Z,20.27
2023-04-17T23:47:03.816Z,20.05
2023-04-17T23:49:31.309Z,13.38
2023-04-17T23:51:58.548Z,14.73
2023-04-17T23:54:25.949Z,14.65
2023-04-17T23:56:53.649Z,14.95
2023-04-17T23:59:20.939Z,16.25
